createdAt,value
2022-10-08T00:01:40.746Z,98.06
2022-10-08T00:05:42.201Z,98.59
2022-10-08T00:09:43.462Z,99.02
2022-10-08T00:13:46.082Z,99.27
2022-10-08T00:17:47.324Z,99.13
2022-10-08T00:21:53.154Z,99.31
2022-10-08T00:25:54.405Z,98.72
2022-10-08T00:29:55.752Z,98.76
2022-10-08T00:33:57.860Z,98.63
2022-10-08T00:37:59.257Z,98.00
2022-10-08T00:42:02.158Z,98.23
2022-10-08T00:46:04.483Z,97.84
2022-10-08T00:50:14.652Z,97.27
2022-10-08T00:54:17.383Z,97.19
2022-10-08T00:58:22.853Z,96.97
2022-10-08T05:13:15.128Z,97.52
2022-10-08T05:17:16.772Z,97.13
2022-10-08T05:21:19.376Z,97.25
2022-10-08T05:25:20.600Z,97.05
2022-10-08T05:29:21.909Z,96.87
2022-10-08T05:33:23.138Z,96.53
2022-10-08T05:37:25.458Z,96.91
2022-10-08T05:41:27.893Z,96.78
2022-10-08T05:45:30.678Z,96.91
2022-10-08T05:49:31.980Z,96.79
2022-10-08T05:53:37.312Z,96.78
2022-10-08T05:57:38.687Z,96.92
2022-10-08T06:01:40.004Z,96.74
2022-10-08T06:05:41.266Z,96.96
2022-10-08T06:09:44.884Z,97.22
2022-10-08T06:13:46.192Z,96.99
2022-10-08T06:17:47.450Z,97.14
2022-10-08T06:21:48.744Z,97.13
2022-10-08T06:25:50.242Z,97.19
2022-10-08T06:29:51.478Z,97.01
2022-10-08T06:33:57.330Z,97.50
2022-10-08T06:37:58.648Z,97.80
2022-10-08T06:41:59.981Z,98.34
2022-10-08T06:46:07.416Z,98.20
2022-10-08T06:50:09.307Z,98.21
2022-10-08T06:54:10.657Z,97.79
2022-10-08T06:58:11.955Z,97.69
2022-10-08T07:02:13.267Z,97.55
2022-10-08T07:06:14.588Z,96.99
2022-10-08T07:10:18.491Z,97.36
2022-10-08T07:14:20.060Z,97.15
2022-10-08T07:18:21.313Z,97.36
2022-10-08T07:22:22.810Z,96.76
2022-10-08T07:26:25.163Z,96.03
2022-10-08T07:30:26.471Z,95.54
2022-10-08T07:34:27.752Z,93.20
2022-10-08T07:38:29.024Z,91.18
2022-10-08T07:42:31.616Z,89.25
2022-10-08T07:46:33.966Z,87.37
2022-10-08T07:50:35.196Z,86.48
2022-10-08T07:54:36.797Z,84.89
2022-10-08T07:58:38.684Z,83.05
2022-10-08T08:02:39.947Z,81.77
2022-10-08T08:06:45.068Z,80.75
2022-10-08T08:10:46.348Z,80.46
2022-10-08T08:14:47.620Z,80.75
2022-10-08T08:18:50.012Z,81.82
2022-10-08T08:22:51.300Z,82.94
2022-10-08T08:26:55.587Z,84.13
2022-10-08T08:31:07.781Z,84.38
2022-10-08T08:35:09.119Z,84.23
2022-10-08T08:39:14.272Z,84.07
2022-10-08T08:43:15.829Z,82.16
2022-10-08T08:47:20.185Z,80.48
2022-10-08T08:51:21.904Z,76.00
2022-10-08T08:55:33.028Z,75.02
2022-10-08T08:59:37.938Z,75.16
2022-10-08T09:04:11.505Z,74.33
2022-10-08T09:08:20.824Z,72.93
2022-10-08T09:12:36.158Z,70.77
2022-10-08T09:16:38.573Z,69.83
2022-10-08T09:20:40.538Z,69.97
2022-10-08T09:24:42.032Z,70.19
2022-10-08T09:29:03.510Z,69.21
2022-10-08T09:33:16.823Z,69.59
2022-10-08T09:37:23.092Z,67.49
2022-10-08T09:41:28.451Z,68.35
2022-10-08T09:45:31.363Z,67.42
2022-10-08T09:49:33.738Z,65.81
2022-10-08T09:53:46.924Z,66.17
2022-10-08T09:57:51.162Z,66.03
2022-10-08T10:01:53.672Z,66.52
2022-10-08T10:05:56.017Z,65.84
2022-10-08T10:10:01.801Z,65.91
2022-10-08T10:14:13.548Z,66.53
2022-10-08T10:18:16.729Z,66.73
2022-10-08T10:22:24.764Z,67.43
2022-10-08T10:26:29.740Z,67.51
2022-10-08T10:30:35.429Z,67.90
2022-10-08T10:34:38.796Z,69.05
2022-10-08T10:38:45.093Z,69.18
2022-10-08T10:42:51.167Z,70.42
2022-10-08T10:46:57.557Z,69.80
2022-10-08T10:51:14.361Z,69.96
2022-10-08T10:55:54.913Z,70.77
2022-10-08T11:00:03.481Z,71.00
2022-10-08T11:04:10.740Z,70.17
2022-10-08T11:08:30.244Z,70.73
2022-10-08T11:12:42.868Z,71.20
2022-10-08T11:16:54.788Z,71.78
2022-10-08T11:21:04.802Z,70.55
2022-10-08T11:25:24.636Z,70.04
2022-10-08T11:29:25.901Z,69.76
2022-10-08T11:33:27.545Z,69.36
2022-10-08T11:37:35.641Z,68.46
2022-10-08T11:41:40.232Z,68.36
2022-10-08T11:45:44.232Z,68.56
2022-10-08T11:49:49.701Z,68.48
2022-10-08T11:54:14.329Z,67.90
2022-10-08T11:58:23.554Z,68.16
2022-10-08T12:02:30.211Z,66.39
2022-10-08T12:06:35.588Z,65.19
2022-10-08T12:10:38.605Z,64.48
2022-10-08T12:14:45.295Z,65.22
2022-10-08T12:18:48.064Z,64.45
2022-10-08T12:23:06.032Z,64.25
2022-10-08T12:27:20.653Z,64.18
2022-10-08T12:31:39.211Z,63.48
2022-10-08T12:35:58.717Z,62.36
2022-10-08T12:40:03.006Z,62.45
2022-10-08T12:44:08.733Z,63.57
2022-10-08T12:48:39.703Z,63.86
2022-10-08T12:52:41.057Z,64.10
2022-10-08T12:56:42.314Z,64.07
2022-10-08T13:00:44.714Z,65.15
2022-10-08T13:04:46.540Z,65.49
2022-10-08T13:08:48.985Z,65.55
2022-10-08T13:13:00.242Z,64.72
2022-10-08T13:17:02.117Z,63.69
2022-10-08T13:21:07.966Z,63.16
2022-10-08T13:25:27.926Z,62.21
2022-10-08T13:29:36.361Z,62.34
2022-10-08T13:33:38.748Z,61.13
2022-10-08T13:37:40.518Z,60.15
2022-10-08T13:41:52.361Z,60.25
2022-10-08T13:45:53.845Z,60.57
2022-10-08T13:50:00.489Z,59.29
2022-10-08T13:54:01.753Z,59.41
2022-10-08T13:58:04.510Z,59.02
2022-10-08T14:02:06.370Z,58.81
2022-10-08T14:06:07.668Z,58.51
2022-10-08T14:10:12.684Z,59.93
2022-10-08T14:14:14.853Z,57.80
2022-10-08T14:18:16.177Z,59.16
2022-10-08T14:22:17.572Z,54.67
2022-10-08T14:26:18.833Z,56.01
2022-10-08T14:30:20.852Z,55.41
2022-10-08T14:34:22.100Z,55.75
2022-10-08T14:38:24.565Z,54.58
2022-10-08T14:42:25.928Z,55.32
2022-10-08T14:46:27.317Z,55.50
2022-10-08T14:50:28.628Z,55.36
2022-10-08T14:54:30.058Z,56.67
2022-10-08T14:58:31.605Z,56.03
2022-10-08T15:02:34.692Z,57.07
2022-10-08T15:06:36.060Z,57.65
2022-10-08T15:10:37.747Z,55.47
2022-10-08T15:14:39.009Z,54.85
2022-10-08T15:18:40.764Z,54.90
2022-10-08T15:22:42.037Z,54.65
2022-10-08T15:26:43.362Z,53.85
2022-10-08T15:30:45.606Z,53.19
2022-10-08T15:34:47.151Z,52.19
2022-10-08T15:38:53.865Z,51.13
2022-10-08T15:42:55.160Z,50.65
2022-10-08T15:47:05.514Z,52.35
2022-10-08T15:51:07.261Z,52.86
2022-10-08T15:55:08.892Z,52.17
2022-10-08T15:59:10.196Z,52.75
2022-10-08T16:03:11.434Z,55.20
2022-10-08T16:07:12.701Z,59.01
2022-10-08T16:11:16.983Z,61.69
2022-10-08T16:15:18.376Z,65.93
2022-10-08T16:19:20.797Z,66.90
2022-10-08T16:23:22.098Z,68.39
2022-10-08T16:27:23.314Z,69.36
2022-10-08T16:31:25.558Z,70.37
2022-10-08T16:35:26.825Z,71.47
2022-10-08T16:39:28.236Z,72.55
2022-10-08T16:43:29.500Z,73.74
2022-10-08T16:47:31.266Z,74.81
2022-10-08T16:51:36.453Z,75.49
2022-10-08T16:55:38.629Z,75.58
2022-10-08T16:59:39.901Z,75.91
2022-10-08T17:03:41.152Z,76.99
2022-10-08T17:07:42.389Z,78.01
2022-10-08T17:11:43.625Z,77.78
2022-10-08T17:15:44.941Z,79.25
2022-10-08T17:19:46.217Z,79.84
2022-10-08T17:23:47.837Z,80.04
2022-10-08T17:27:49.204Z,80.48
2022-10-08T17:31:50.548Z,81.41
2022-10-08T17:36:08.868Z,82.06
2022-10-08T17:40:10.347Z,82.30
2022-10-08T17:44:12.354Z,82.31
2022-10-08T17:48:13.657Z,83.26
2022-10-08T17:52:15.212Z,83.14
2022-10-08T17:56:16.845Z,83.25
2022-10-08T18:00:18.321Z,84.35
2022-10-08T18:04:19.596Z,84.02
2022-10-08T18:08:21.325Z,84.37
2022-10-08T18:12:22.553Z,85.19
2022-10-08T18:16:25.379Z,84.74
2022-10-08T18:20:26.604Z,85.39
2022-10-08T18:24:27.994Z,86.00
2022-10-08T18:28:29.308Z,85.44
2022-10-08T18:32:31.293Z,86.53
2022-10-08T18:36:33.991Z,86.43
2022-10-08T18:40:35.426Z,87.03
2022-10-08T18:44:36.667Z,87.58
2022-10-08T18:48:38.593Z,88.31
2022-10-08T18:52:39.876Z,88.35
2022-10-08T18:56:41.550Z,88.93
2022-10-08T19:00:44.875Z,88.63
2022-10-08T19:04:46.274Z,88.59
2022-10-08T19:08:48.600Z,88.44
2022-10-08T19:12:50.268Z,88.97
2022-10-08T19:16:52.296Z,89.79
2022-10-08T19:20:55.016Z,89.92
2022-10-08T19:24:58.580Z,90.07
2022-10-08T19:29:02.020Z,90.25
2022-10-08T19:33:03.410Z,90.50
2022-10-08T19:37:04.788Z,91.05
2022-10-08T19:41:09.575Z,91.16
2022-10-08T19:45:11.141Z,90.36
2022-10-08T19:49:12.485Z,90.56
2022-10-08T19:53:14.843Z,90.66
2022-10-08T19:57:16.092Z,90.61
2022-10-08T20:01:18.941Z,91.42
2022-10-08T20:05:20.222Z,90.95
2022-10-08T20:09:22.244Z,90.89
2022-10-08T20:13:23.518Z,91.20
2022-10-08T20:17:24.805Z,91.43
2022-10-08T20:21:26.965Z,91.72
2022-10-08T20:25:28.455Z,92.11
2022-10-08T20:29:31.144Z,92.01
2022-10-08T20:33:32.712Z,91.96
2022-10-08T20:37:34.161Z,92.15
2022-10-08T20:41:36.237Z,92.07
2022-10-08T20:45:37.536Z,92.15
2022-10-08T20:49:38.848Z,91.90
2022-10-08T20:53:40.536Z,92.25
2022-10-08T20:57:42.718Z,91.98
2022-10-08T21:01:44.476Z,92.38
2022-10-08T21:05:46.016Z,92.36
2022-10-08T21:09:48.630Z,92.63
2022-10-08T21:13:50.409Z,92.43
2022-10-08T21:17:51.639Z,92.30
2022-10-08T21:21:52.932Z,92.19
2022-10-08T21:25:54.152Z,92.26
2022-10-08T21:29:55.419Z,91.97
2022-10-08T21:33:57.584Z,91.89
2022-10-08T21:37:58.937Z,92.66
2022-10-08T21:42:00.212Z,93.10
2022-10-08T21:46:01.767Z,92.58
2022-10-08T21:50:03.271Z,92.24
2022-10-08T21:54:05.474Z,92.21
2022-10-08T21:58:06.728Z,92.16
2022-10-08T22:02:08.626Z,92.23
2022-10-08T22:06:09.984Z,92.14
2022-10-08T22:10:11.293Z,92.28
2022-10-08T22:14:12.603Z,92.56
2022-10-08T22:18:14.021Z,92.43
2022-10-08T22:22:15.309Z,92.26
2022-10-08T22:26:21.317Z,91.84
2022-10-08T22:30:22.642Z,91.91
2022-10-08T22:34:23.898Z,91.82
2022-10-08T22:38:25.144Z,92.42
2022-10-08T22:42:26.443Z,92.05
2022-10-08T22:46:29.441Z,92.59
2022-10-08T22:50:30.795Z,92.55
2022-10-08T22:54:32.293Z,92.63
2022-10-08T22:58:34.516Z,92.16
2022-10-08T23:02:35.988Z,92.45
2022-10-08T23:06:37.970Z,92.45
2022-10-08T23:10:39.295Z,92.38
2022-10-08T23:14:40.725Z,92.10
2022-10-08T23:18:43.195Z,92.64
2022-10-08T23:22:44.651Z,92.13
2022-10-08T23:26:46.081Z,92.47
2022-10-08T23:30:47.738Z,92.74
2022-10-08T23:34:49.002Z,92.74
2022-10-08T23:38:50.482Z,93.03
2022-10-08T23:42:52.336Z,92.84
2022-10-08T23:46:53.585Z,93.02
2022-10-08T23:50:54.828Z,93.00
2022-10-08T23:54:56.273Z,92.31
2022-10-08T23:58:57.919Z,92.48
